Flight Track Log - Related Links

Times and Time Zones

All times are in EDT time to prevent confusion due to time zone crossing. See the N517CP flight status page for this flight to view local times or setup timezone preferences in your user account.

Time Position Orientation Groundspeed Altitude Reporting Facility
EDT Latitude Longitude Course Direction KTS MPH feet Rate Location/Type
Tue 10:58:45 AM 29.9503 -95.3786 223° Southwest 117 135 1,700  Level Houston Center
Tue 10:59:47 AM 29.9364 -95.4117 244° Southwest 125 144 2,500 634 Climbing Houston Center
Tue 11:00:48 AM 29.9231 -95.4494 248° West 126 145 3,000 234 Climbing Houston Center
Tue 11:01:55 AM 29.9025 -95.5000 245° Southwest 156 180 3,000  Level Houston Center
Tue 11:02:50 AM 29.8958 -95.5442 260° West 162 186 3,000  Level Houston Center
Tue 11:03:20 AM 29.8989 -95.5667 279° West 152 175 3,000  Level Houston Center
Tue 11:03:51 AM 29.9006 -95.5944 274° West 152 175 3,000 97 Level Houston Center
Tue 11:04:22 AM 29.9014 -95.6161 273° West 154 177 3,100 689 Climbing Houston Center
Tue 11:04:52 AM 29.9025 -95.6400 273° West 143 165 3,700 968 Climbing Houston Center
Tue 11:05:24 AM 29.9053 -95.6600 279° West 144 166 4,100 638 Climbing Houston Center
Tue 11:06:26 AM 29.9067 -95.7011 272° West 132 152 4,700 576 Climbing Houston Center
Tue 11:07:29 AM 29.9100 -95.7436 275° West 134 154 5,300 576 Climbing Houston Center
Tue 11:08:31 AM 29.9117 -95.7869 273° West 135 155 5,900 581 Climbing Houston Center
Tue 11:09:33 AM 29.9158 -95.8403 275° West 139 160 6,500 484 Climbing Houston Center
Tue 11:10:35 AM 29.9183 -95.8844 274° West 139 160 6,900 435 Climbing Houston Center
Tue 11:11:37 AM 29.9208 -95.9306 274° West 144 166 7,400 435 Climbing Houston Center
Tue 11:12:39 AM 29.9236 -95.9769 274° West 145 167 7,800 290 Climbing Houston Center
Tue 11:13:41 AM 29.9256 -96.0319 272° West 150 173 8,000 97 Climbing Houston Center
Tue 11:14:43 AM 29.9292 -96.0847 275° West 163 188 8,000  Level Houston Center
Tue 11:15:45 AM 29.9328 -96.1381 274° West 167 192 8,000  Level Houston Center
Tue 11:16:48 AM 29.9358 -96.1908 274° West 166 191 8,000  Level Houston Center
Tue 11:17:50 AM 29.9378 -96.2447 272° West 168 193 8,000  Level Houston Center
Tue 11:18:52 AM 29.9422 -96.3078 275° West 165 190 8,000  Level Houston Center
Tue 11:19:54 AM 29.9456 -96.3606 274° West 165 190 8,000  Level Houston Center
Tue 11:20:56 AM 29.9472 -96.4136 272° West 166 191 8,000  Level Houston Center
Tue 11:21:58 AM 29.9514 -96.4667 275° West 166 191 8,000  Level Houston Center
Tue 11:23:00 AM 29.9531 -96.5203 272° West 167 192 8,000  Level Houston Center
Tue 11:24:02 AM 29.9594 -96.5722 278° West 166 191 8,000  Level Houston Center
Tue 11:25:04 AM 29.9856 -96.6303 297° West 171 197 8,000  Level Houston Center
Tue 11:26:06 AM 30.0067 -96.6783 297° West 168 193 8,000  Level Houston Center
Tue 11:27:09 AM 30.0289 -96.7269 298° West 171 197 8,000  Level Houston Center
Tue 11:28:11 AM 30.0494 -96.7750 296° West 169 194 8,000  Level Houston Center
Tue 11:29:13 AM 30.0706 -96.8236 297° West 170 196 8,000  Level Houston Center
Tue 11:30:01 AM 30.0922 -96.8689 299° West 171 197 8,000  Level Houston Center
Tue 11:31:17 AM 30.1181 -96.9311 296° West 170 196 8,000  Level Houston Center
Tue 11:32:19 AM 30.1400 -96.9803 297° West 170 196 8,000 -48 Level Houston Center
Tue 11:33:21 AM 30.1614 -97.0281 297° West 168 193 7,900 -290 Descending Houston Center
Tue 11:34:23 AM 30.1847 -97.0825 296° West 183 211 7,400 -484 Descending Houston Center
Tue 11:35:25 AM 30.2092 -97.1364 298° West 186 214 6,900 -528 Descending Houston Center
Tue 11:36:28 AM 30.2364 -97.2011 296° West 189 217 6,300 -432 Descending Houston Center
Tue 11:37:30 AM 30.2592 -97.2550 296° West 186 214 6,000 -145 Descending Houston Center
Tue 11:38:32 AM 30.2814 -97.3058 297° West 178 205 6,000  Level Houston Center
Tue 11:39:34 AM 30.3031 -97.3547 297° West 171 197 6,000  Level Houston Center
Tue 11:40:36 AM 30.3244 -97.4047 296° West 171 197 6,000  Level Houston Center
Tue 11:41:38 AM 30.3458 -97.4544 297° West 170 196 6,000  Level Houston Center
Tue 11:42:40 AM 30.3531 -97.5083 279° West 188 216 6,000  Level Houston Center
Tue 11:43:42 AM 30.3606 -97.5592 280° West 167 192 6,000  Level Houston Center
Tue 11:44:45 AM 30.3694 -97.6192 280° West 161 185 6,000  Level Houston Center
Tue 11:45:47 AM 30.3656 -97.6703 265° West 158 182 6,000  Level Houston Center
Tue 11:46:28 AM 30.3683 -97.7053 275° West 162 186 6,000  Level Houston Center
Tue 11:47:51 AM 30.3842 -97.7739 285° West 167 192 6,000  Level Houston Center
Tue 11:48:53 AM 30.3967 -97.8244 286° West 164 189 6,000  Level Houston Center
Tue 11:49:55 AM 30.4108 -97.8778 287° West 167 192 6,000  Level Houston Center
Tue 11:50:29 AM 30.4183 -97.9100 285° West 168 193 6,000  Level Houston Center
Tue 11:52:00 AM 30.4389 -97.9894 287° West 166 191 6,000  Level Houston Center
Tue 11:53:02 AM 30.4522 -98.0411 287° West 166 191 6,000  Level Houston Center
Tue 11:54:04 AM 30.4642 -98.0925 285° West 164 189 6,000  Level Houston Center
Tue 11:55:06 AM 30.4775 -98.1442 287° West 164 189 6,000  Level Houston Center
Tue 11:56:08 AM 30.4897 -98.1950 286° West 163 188 6,000  Level Houston Center

Login

Don't have an account? Register now (free) for customized features, flight alerts, and more!